sensor_id;sensor_type;location;lat;lon;timestamp;temperature;humidity
7708;DHT22;3896;48.758;8.888;2023-08-07T00:00:26;13.00;99.90
7708;DHT22;3896;48.758;8.888;2023-08-07T00:02:51;12.90;99.90
7708;DHT22;3896;48.758;8.888;2023-08-07T00:05:17;12.90;99.90
7708;DHT22;3896;48.758;8.888;2023-08-07T00:07:43;12.90;99.90
7708;DHT22;3896;48.758;8.888;2023-08-07T00:10:09;12.90;99.90
7708;DHT22;3896;48.758;8.888;2023-08-07T00:12:34;12.90;99.90
7708;DHT22;3896;48.758;8.888;2023-08-07T00:15:02;12.80;99.90
7708;DHT22;3896;48.758;8.888;2023-08-07T00:17:28;12.80;99.90
7708;DHT22;3896;48.758;8.888;2023-08-07T00:19:53;12.80;99.90
7708;DHT22;3896;48.758;8.888;2023-08-07T00:22:19;12.80;99.90
7708;DHT22;3896;48.758;8.888;2023-08-07T00:24:44;12.70;99.90
7708;DHT22;3896;48.758;8.888;2023-08-07T00:27:10;12.70;99.90
7708;DHT22;3896;48.758;8.888;2023-08-07T00:29:36;12.70;99.90
7708;DHT22;3896;48.758;8.888;2023-08-07T00:32:03;12.60;99.90
7708;DHT22;3896;48.758;8.888;2023-08-07T00:34:29;12.60;99.90
7708;DHT22;3896;48.758;8.888;2023-08-07T00:36:54;12.60;99.90
7708;DHT22;3896;48.758;8.888;2023-08-07T00:39:20;12.60;99.90
7708;DHT22;3896;48.758;8.888;2023-08-07T00:41:46;12.50;99.90
7708;DHT22;3896;48.758;8.888;2023-08-07T00:44:12;12.60;99.90
7708;DHT22;3896;48.758;8.888;2023-08-07T00:46:37;12.50;99.90
7708;DHT22;3896;48.758;8.888;2023-08-07T00:49:05;12.50;99.90
7708;DHT22;3896;48.758;8.888;2023-08-07T00:51:31;12.50;99.90
7708;DHT22;3896;48.758;8.888;2023-08-07T00:53:57;12.50;99.90
7708;DHT22;3896;48.758;8.888;2023-08-07T00:56:24;12.50;99.90
7708;DHT22;3896;48.758;8.888;2023-08-07T00:58:49;12.40;99.90
7708;DHT22;3896;48.758;8.888;2023-08-07T01:01:15;12.40;99.90
7708;DHT22;3896;48.758;8.888;2023-08-07T01:03:41;12.40;99.90
7708;DHT22;3896;48.758;8.888;2023-08-07T01:06:06;12.40;99.90
7708;DHT22;3896;48.758;8.888;2023-08-07T01:08:32;12.40;99.90
7708;DHT22;3896;48.758;8.888;2023-08-07T01:11:17;12.40;99.90
7708;DHT22;3896;48.758;8.888;2023-08-07T01:13:53;12.40;99.90
7708;DHT22;3896;48.758;8.888;2023-08-07T01:16:28;12.40;99.90
7708;DHT22;3896;48.758;8.888;2023-08-07T01:18:57;12.40;99.90
7708;DHT22;3896;48.758;8.888;2023-08-07T01:21:25;12.40;99.90
7708;DHT22;3896;48.758;8.888;2023-08-07T01:23:51;12.40;99.90
7708;DHT22;3896;48.758;8.888;2023-08-07T01:26:20;12.40;99.90
7708;DHT22;3896;48.758;8.888;2023-08-07T01:29:09;12.40;99.90
7708;DHT22;3896;48.758;8.888;2023-08-07T01:31:38;12.40;99.90
7708;DHT22;3896;48.758;8.888;2023-08-07T01:34:05;12.40;99.90
7708;DHT22;3896;48.758;8.888;2023-08-07T01:36:34;12.40;99.90
7708;DHT22;3896;48.758;8.888;2023-08-07T01:39:01;12.40;99.90
7708;DHT22;3896;48.758;8.888;2023-08-07T01:41:27;12.40;99.90
7708;DHT22;3896;48.758;8.888;2023-08-07T01:43:54;12.40;99.90
7708;DHT22;3896;48.758;8.888;2023-08-07T01:46:20;12.40;99.90
7708;DHT22;3896;48.758;8.888;2023-08-07T01:48:46;12.40;99.90
7708;DHT22;3896;48.758;8.888;2023-08-07T01:51:12;12.40;99.90
7708;DHT22;3896;48.758;8.888;2023-08-07T01:53:37;12.40;99.90
7708;DHT22;3896;48.758;8.888;2023-08-07T01:56:03;12.40;99.90
7708;DHT22;3896;48.758;8.888;2023-08-07T01:58:29;12.40;99.90
7708;DHT22;3896;48.758;8.888;2023-08-07T02:00:54;12.40;99.90
7708;DHT22;3896;48.758;8.888;2023-08-07T02:03:20;12.40;99.90
7708;DHT22;3896;48.758;8.888;2023-08-07T02:05:46;12.40;99.90
7708;DHT22;3896;48.758;8.888;2023-08-07T02:08:12;12.40;99.90
7708;DHT22;3896;48.758;8.888;2023-08-07T02:10:37;12.40;99.90
7708;DHT22;3896;48.758;8.888;2023-08-07T02:13:03;12.40;99.90
7708;DHT22;3896;48.758;8.888;2023-08-07T02:15:29;12.40;99.90
7708;DHT22;3896;48.758;8.888;2023-08-07T02:17:54;12.40;99.90
7708;DHT22;3896;48.758;8.888;2023-08-07T02:20:20;12.50;99.90
7708;DHT22;3896;48.758;8.888;2023-08-07T02:22:45;12.40;99.90
7708;DHT22;3896;48.758;8.888;2023-08-07T02:25:11;12.40;99.90
7708;DHT22;3896;48.758;8.888;2023-08-07T02:27:36;12.40;99.90
7708;DHT22;3896;48.758;8.888;2023-08-07T02:30:02;12.40;99.90
7708;DHT22;3896;48.758;8.888;2023-08-07T02:32:29;12.40;99.90
7708;DHT22;3896;48.758;8.888;2023-08-07T02:34:55;12.40;99.90
7708;DHT22;3896;48.758;8.888;2023-08-07T02:37:20;12.40;99.90
7708;DHT22;3896;48.758;8.888;2023-08-07T02:39:46;12.40;99.90
7708;DHT22;3896;48.758;8.888;2023-08-07T02:42:12;12.40;99.90
7708;DHT22;3896;48.758;8.888;2023-08-07T02:44:37;12.40;99.90
7708;DHT22;3896;48.758;8.888;2023-08-07T02:47:03;12.40;99.90
7708;DHT22;3896;48.758;8.888;2023-08-07T02:49:29;12.40;99.90
7708;DHT22;3896;48.758;8.888;2023-08-07T02:51:54;12.40;99.90
7708;DHT22;3896;48.758;8.888;2023-08-07T02:54:20;12.40;99.90
7708;DHT22;3896;48.758;8.888;2023-08-07T02:56:45;12.30;99.90
7708;DHT22;3896;48.758;8.888;2023-08-07T02:59:11;12.30;99.90
7708;DHT22;3896;48.758;8.888;2023-08-07T03:01:36;12.30;99.90
7708;DHT22;3896;48.758;8.888;2023-08-07T03:04:02;12.40;99.90
7708;DHT22;3896;48.758;8.888;2023-08-07T03:06:28;12.30;99.90
7708;DHT22;3896;48.758;8.888;2023-08-07T03:08:53;12.30;99.90
7708;DHT22;3896;48.758;8.888;2023-08-07T03:11:19;12.30;99.90
7708;DHT22;3896;48.758;8.888;2023-08-07T03:13:44;12.30;99.90
7708;DHT22;3896;48.758;8.888;2023-08-07T03:16:10;12.30;99.90
7708;DHT22;3896;48.758;8.888;2023-08-07T03:18:35;12.30;99.90
7708;DHT22;3896;48.758;8.888;2023-08-07T03:21:01;12.20;99.90
7708;DHT22;3896;48.758;8.888;2023-08-07T03:23:27;12.20;99.90
7708;DHT22;3896;48.758;8.888;2023-08-07T03:26:07;12.20;99.90
7708;DHT22;3896;48.758;8.888;2023-08-07T03:28:33;12.20;99.90
7708;DHT22;3896;48.758;8.888;2023-08-07T03:30:59;12.20;99.90
7708;DHT22;3896;48.758;8.888;2023-08-07T03:33:24;12.20;99.90
7708;DHT22;3896;48.758;8.888;2023-08-07T03:35:50;12.20;99.90
7708;DHT22;3896;48.758;8.888;2023-08-07T03:38:15;12.20;99.90
7708;DHT22;3896;48.758;8.888;2023-08-07T03:40:41;12.20;99.90
7708;DHT22;3896;48.758;8.888;2023-08-07T03:43:07;12.20;99.90
7708;DHT22;3896;48.758;8.888;2023-08-07T03:45:32;12.20;99.90
7708;DHT22;3896;48.758;8.888;2023-08-07T03:47:58;12.20;99.90
7708;DHT22;3896;48.758;8.888;2023-08-07T03:50:23;12.20;99.90
7708;DHT22;3896;48.758;8.888;2023-08-07T03:52:49;12.20;99.90
7708;DHT22;3896;48.758;8.888;2023-08-07T03:55:14;12.20;99.90
7708;DHT22;3896;48.758;8.888;2023-08-07T03:57:40;12.20;99.90
7708;DHT22;3896;48.758;8.888;2023-08-07T04:00:06;12.10;99.90
7708;DHT22;3896;48.758;8.888;2023-08-07T04:02:32;12.10;99.90
7708;DHT22;3896;48.758;8.888;2023-08-07T04:04:58;12.10;99.90
7708;DHT22;3896;48.758;8.888;2023-08-07T04:07:23;12.10;99.90
7708;DHT22;3896;48.758;8.888;2023-08-07T04:09:49;12.10;99.90
7708;DHT22;3896;48.758;8.888;2023-08-07T04:12:14;12.10;99.90
7708;DHT22;3896;48.758;8.888;2023-08-07T04:14:40;12.10;99.90
7708;DHT22;3896;48.758;8.888;2023-08-07T04:17:05;12.00;99.90
7708;DHT22;3896;48.758;8.888;2023-08-07T04:19:31;12.00;99.90
7708;DHT22;3896;48.758;8.888;2023-08-07T04:21:56;12.00;99.90
7708;DHT22;3896;48.758;8.888;2023-08-07T04:24:22;12.00;99.90
7708;DHT22;3896;48.758;8.888;2023-08-07T04:26:48;12.00;99.90
7708;DHT22;3896;48.758;8.888;2023-08-07T04:29:13;12.00;99.90
7708;DHT22;3896;48.758;8.888;2023-08-07T04:31:39;12.00;99.90
7708;DHT22;3896;48.758;8.888;2023-08-07T04:34:04;11.90;99.90
7708;DHT22;3896;48.758;8.888;2023-08-07T04:36:30;11.90;99.90
7708;DHT22;3896;48.758;8.888;2023-08-07T04:38:55;11.90;99.90
7708;DHT22;3896;48.758;8.888;2023-08-07T04:41:21;11.90;99.90
7708;DHT22;3896;48.758;8.888;2023-08-07T04:43:47;12.00;99.90
7708;DHT22;3896;48.758;8.888;2023-08-07T04:46:14;12.00;99.90
7708;DHT22;3896;48.758;8.888;2023-08-07T04:48:40;12.00;99.90
7708;DHT22;3896;48.758;8.888;2023-08-07T04:51:05;12.00;99.90
7708;DHT22;3896;48.758;8.888;2023-08-07T04:53:31;12.00;99.90
7708;DHT22;3896;48.758;8.888;2023-08-07T04:55:56;12.00;99.90
7708;DHT22;3896;48.758;8.888;2023-08-07T04:58:22;12.00;99.90
7708;DHT22;3896;48.758;8.888;2023-08-07T05:00:47;12.00;99.90
7708;DHT22;3896;48.758;8.888;2023-08-07T05:03:13;12.00;99.90
7708;DHT22;3896;48.758;8.888;2023-08-07T05:05:40;12.00;99.90
7708;DHT22;3896;48.758;8.888;2023-08-07T05:08:06;12.10;99.90
7708;DHT22;3896;48.758;8.888;2023-08-07T05:10:31;12.10;99.90
7708;DHT22;3896;48.758;8.888;2023-08-07T05:12:57;12.10;99.90
7708;DHT22;3896;48.758;8.888;2023-08-07T05:15:23;12.10;99.90
7708;DHT22;3896;48.758;8.888;2023-08-07T05:17:50;12.10;99.90
7708;DHT22;3896;48.758;8.888;2023-08-07T05:20:16;12.10;99.90
7708;DHT22;3896;48.758;8.888;2023-08-07T05:22:42;12.20;99.90
7708;DHT22;3896;48.758;8.888;2023-08-07T05:25:08;12.20;99.90
7708;DHT22;3896;48.758;8.888;2023-08-07T05:27:35;12.20;99.90
7708;DHT22;3896;48.758;8.888;2023-08-07T05:30:01;12.20;99.90
7708;DHT22;3896;48.758;8.888;2023-08-07T05:32:26;12.20;99.90
7708;DHT22;3896;48.758;8.888;2023-08-07T05:34:53;12.30;99.90
7708;DHT22;3896;48.758;8.888;2023-08-07T05:37:19;12.30;99.90
7708;DHT22;3896;48.758;8.888;2023-08-07T05:39:44;12.40;99.90
7708;DHT22;3896;48.758;8.888;2023-08-07T05:42:10;12.40;99.90
7708;DHT22;3896;48.758;8.888;2023-08-07T05:44:35;12.40;99.90
7708;DHT22;3896;48.758;8.888;2023-08-07T05:47:01;12.50;99.90
7708;DHT22;3896;48.758;8.888;2023-08-07T05:49:27;12.50;99.90
7708;DHT22;3896;48.758;8.888;2023-08-07T05:51:53;12.50;99.90
7708;DHT22;3896;48.758;8.888;2023-08-07T05:54:18;12.60;99.90
7708;DHT22;3896;48.758;8.888;2023-08-07T05:56:44;12.60;99.90
7708;DHT22;3896;48.758;8.888;2023-08-07T05:59:09;12.60;99.90
7708;DHT22;3896;48.758;8.888;2023-08-07T06:01:35;12.70;99.90
7708;DHT22;3896;48.758;8.888;2023-08-07T06:04:02;12.70;99.90
7708;DHT22;3896;48.758;8.888;2023-08-07T06:06:28;12.70;99.90
7708;DHT22;3896;48.758;8.888;2023-08-07T06:08:54;12.80;99.90
7708;DHT22;3896;48.758;8.888;2023-08-07T06:11:20;12.80;99.90
7708;DHT22;3896;48.758;8.888;2023-08-07T06:13:46;12.90;99.90
7708;DHT22;3896;48.758;8.888;2023-08-07T06:16:11;12.90;99.90
7708;DHT22;3896;48.758;8.888;2023-08-07T06:18:37;12.90;99.90
7708;DHT22;3896;48.758;8.888;2023-08-07T06:21:03;13.00;99.90
7708;DHT22;3896;48.758;8.888;2023-08-07T06:23:32;13.10;99.90
7708;DHT22;3896;48.758;8.888;2023-08-07T06:25:57;13.10;99.90
7708;DHT22;3896;48.758;8.888;2023-08-07T06:28:23;13.20;99.90
7708;DHT22;3896;48.758;8.888;2023-08-07T06:30:48;13.20;99.90
7708;DHT22;3896;48.758;8.888;2023-08-07T06:33:14;13.30;99.90
7708;DHT22;3896;48.758;8.888;2023-08-07T06:35:41;13.30;99.90
7708;DHT22;3896;48.758;8.888;2023-08-07T06:38:08;13.30;99.90
7708;DHT22;3896;48.758;8.888;2023-08-07T06:40:37;13.40;99.90
7708;DHT22;3896;48.758;8.888;2023-08-07T06:43:03;13.40;99.90
7708;DHT22;3896;48.758;8.888;2023-08-07T06:45:29;13.50;99.90
7708;DHT22;3896;48.758;8.888;2023-08-07T06:47:54;13.50;99.90
7708;DHT22;3896;48.758;8.888;2023-08-07T06:50:21;13.60;99.90
7708;DHT22;3896;48.758;8.888;2023-08-07T06:52:46;13.60;99.90
7708;DHT22;3896;48.758;8.888;2023-08-07T06:55:12;13.70;99.90
7708;DHT22;3896;48.758;8.888;2023-08-07T06:57:37;13.70;99.90
7708;DHT22;3896;48.758;8.888;2023-08-07T07:00:04;13.80;99.90
7708;DHT22;3896;48.758;8.888;2023-08-07T07:02:30;13.80;99.90
7708;DHT22;3896;48.758;8.888;2023-08-07T07:04:55;13.90;99.90
7708;DHT22;3896;48.758;8.888;2023-08-07T07:07:21;13.90;99.90
7708;DHT22;3896;48.758;8.888;2023-08-07T07:09:47;13.90;99.90
7708;DHT22;3896;48.758;8.888;2023-08-07T07:12:12;14.00;99.90
7708;DHT22;3896;48.758;8.888;2023-08-07T07:14:38;14.00;99.90
7708;DHT22;3896;48.758;8.888;2023-08-07T07:17:04;14.10;99.90
7708;DHT22;3896;48.758;8.888;2023-08-07T07:19:29;14.10;99.90
7708;DHT22;3896;48.758;8.888;2023-08-07T07:21:55;14.20;99.90
7708;DHT22;3896;48.758;8.888;2023-08-07T07:24:22;14.30;99.90
7708;DHT22;3896;48.758;8.888;2023-08-07T07:26:47;14.30;99.90
7708;DHT22;3896;48.758;8.888;2023-08-07T07:29:13;14.40;99.90
7708;DHT22;3896;48.758;8.888;2023-08-07T07:31:38;14.50;99.90
7708;DHT22;3896;48.758;8.888;2023-08-07T07:34:05;14.60;99.90
7708;DHT22;3896;48.758;8.888;2023-08-07T07:36:31;14.60;99.90
7708;DHT22;3896;48.758;8.888;2023-08-07T07:38:56;14.70;99.90
7708;DHT22;3896;48.758;8.888;2023-08-07T07:41:22;14.70;99.80
7708;DHT22;3896;48.758;8.888;2023-08-07T07:43:48;14.80;99.20
7708;DHT22;3896;48.758;8.888;2023-08-07T07:46:14;14.80;98.50
7708;DHT22;3896;48.758;8.888;2023-08-07T07:48:39;14.90;98.30
7708;DHT22;3896;48.758;8.888;2023-08-07T07:51:05;14.90;98.10
7708;DHT22;3896;48.758;8.888;2023-08-07T07:53:31;15.00;97.60
7708;DHT22;3896;48.758;8.888;2023-08-07T07:55:57;15.00;96.70
7708;DHT22;3896;48.758;8.888;2023-08-07T07:58:23;15.10;96.40
7708;DHT22;3896;48.758;8.888;2023-08-07T08:00:48;15.10;96.10
7708;DHT22;3896;48.758;8.888;2023-08-07T08:03:14;15.10;95.30
7708;DHT22;3896;48.758;8.888;2023-08-07T08:05:41;15.20;95.00
7708;DHT22;3896;48.758;8.888;2023-08-07T08:08:07;15.20;94.40
7708;DHT22;3896;48.758;8.888;2023-08-07T08:10:35;15.20;94.40
7708;DHT22;3896;48.758;8.888;2023-08-07T08:13:01;15.30;93.80
7708;DHT22;3896;48.758;8.888;2023-08-07T08:15:29;15.30;93.40
7708;DHT22;3896;48.758;8.888;2023-08-07T08:17:55;15.40;93.00
7708;DHT22;3896;48.758;8.888;2023-08-07T08:20:20;15.50;92.70
7708;DHT22;3896;48.758;8.888;2023-08-07T08:22:46;15.60;92.40
7708;DHT22;3896;48.758;8.888;2023-08-07T08:25:12;15.70;92.20
7708;DHT22;3896;48.758;8.888;2023-08-07T08:27:38;15.80;92.00
7708;DHT22;3896;48.758;8.888;2023-08-07T08:30:04;15.90;91.60
7708;DHT22;3896;48.758;8.888;2023-08-07T08:32:30;15.90;91.40
7708;DHT22;3896;48.758;8.888;2023-08-07T08:34:56;16.00;91.20
7708;DHT22;3896;48.758;8.888;2023-08-07T08:37:22;16.10;90.30
7708;DHT22;3896;48.758;8.888;2023-08-07T08:39:47;16.20;88.90
7708;DHT22;3896;48.758;8.888;2023-08-07T08:42:14;16.20;87.80
7708;DHT22;3896;48.758;8.888;2023-08-07T08:44:40;16.30;87.50
7708;DHT22;3896;48.758;8.888;2023-08-07T08:47:07;16.30;87.10
7708;DHT22;3896;48.758;8.888;2023-08-07T08:49:37;16.30;86.40
7708;DHT22;3896;48.758;8.888;2023-08-07T08:52:07;16.40;86.30
7708;DHT22;3896;48.758;8.888;2023-08-07T08:54:33;16.40;85.70
7708;DHT22;3896;48.758;8.888;2023-08-07T08:56:59;16.50;85.30
7708;DHT22;3896;48.758;8.888;2023-08-07T08:59:25;16.60;85.10
7708;DHT22;3896;48.758;8.888;2023-08-07T09:01:51;16.70;84.40
7708;DHT22;3896;48.758;8.888;2023-08-07T09:04:18;16.70;83.20
7708;DHT22;3896;48.758;8.888;2023-08-07T09:06:44;16.80;82.80
7708;DHT22;3896;48.758;8.888;2023-08-07T09:09:11;16.80;82.30
7708;DHT22;3896;48.758;8.888;2023-08-07T09:11:38;16.90;82.20
7708;DHT22;3896;48.758;8.888;2023-08-07T09:14:04;17.00;81.60
7708;DHT22;3896;48.758;8.888;2023-08-07T09:16:30;17.10;80.90
7708;DHT22;3896;48.758;8.888;2023-08-07T09:18:56;17.20;80.10
7708;DHT22;3896;48.758;8.888;2023-08-07T09:21:22;17.20;80.20
7708;DHT22;3896;48.758;8.888;2023-08-07T09:23:47;17.30;80.10
7708;DHT22;3896;48.758;8.888;2023-08-07T09:26:13;17.40;78.90
7708;DHT22;3896;48.758;8.888;2023-08-07T09:28:41;17.50;78.40
7708;DHT22;3896;48.758;8.888;2023-08-07T09:31:08;17.60;77.80
7708;DHT22;3896;48.758;8.888;2023-08-07T09:33:34;17.70;77.50
7708;DHT22;3896;48.758;8.888;2023-08-07T09:36:01;17.70;76.10
7708;DHT22;3896;48.758;8.888;2023-08-07T09:38:30;17.80;75.00
7708;DHT22;3896;48.758;8.888;2023-08-07T09:41:00;17.80;74.80
7708;DHT22;3896;48.758;8.888;2023-08-07T09:43:25;17.80;74.90
7708;DHT22;3896;48.758;8.888;2023-08-07T09:45:51;17.90;75.00
7708;DHT22;3896;48.758;8.888;2023-08-07T09:48:24;17.90;74.50
7708;DHT22;3896;48.758;8.888;2023-08-07T09:50:54;17.90;74.60
7708;DHT22;3896;48.758;8.888;2023-08-07T09:53:25;18.00;74.50
7708;DHT22;3896;48.758;8.888;2023-08-07T09:55:52;18.00;74.40
7708;DHT22;3896;48.758;8.888;2023-08-07T09:58:18;18.10;74.20
7708;DHT22;3896;48.758;8.888;2023-08-07T10:00:46;18.20;73.10
7708;DHT22;3896;48.758;8.888;2023-08-07T10:03:13;18.20;72.40
7708;DHT22;3896;48.758;8.888;2023-08-07T10:05:39;18.20;71.90
7708;DHT22;3896;48.758;8.888;2023-08-07T10:08:05;18.20;72.10
7708;DHT22;3896;48.758;8.888;2023-08-07T10:10:32;18.30;71.80
7708;DHT22;3896;48.758;8.888;2023-08-07T10:13:00;18.30;71.80
7708;DHT22;3896;48.758;8.888;2023-08-07T10:15:27;18.30;71.20
7708;DHT22;3896;48.758;8.888;2023-08-07T10:17:53;18.40;71.30
7708;DHT22;3896;48.758;8.888;2023-08-07T10:20:20;18.40;71.10
7708;DHT22;3896;48.758;8.888;2023-08-07T10:22:47;18.50;70.90
7708;DHT22;3896;48.758;8.888;2023-08-07T10:25:13;18.50;70.10
7708;DHT22;3896;48.758;8.888;2023-08-07T10:27:40;18.50;69.80
7708;DHT22;3896;48.758;8.888;2023-08-07T10:30:10;18.50;69.40
7708;DHT22;3896;48.758;8.888;2023-08-07T10:32:38;18.60;69.40
7708;DHT22;3896;48.758;8.888;2023-08-07T10:35:04;18.70;70.50
7708;DHT22;3896;48.758;8.888;2023-08-07T10:37:40;18.70;70.00
7708;DHT22;3896;48.758;8.888;2023-08-07T10:40:07;18.70;69.90
7708;DHT22;3896;48.758;8.888;2023-08-07T10:43:17;18.80;69.60
7708;DHT22;3896;48.758;8.888;2023-08-07T10:45:42;18.70;69.40
7708;DHT22;3896;48.758;8.888;2023-08-07T10:48:11;18.80;69.20
7708;DHT22;3896;48.758;8.888;2023-08-07T10:53:41;18.80;69.40
7708;DHT22;3896;48.758;8.888;2023-08-07T10:56:11;18.80;69.00
7708;DHT22;3896;48.758;8.888;2023-08-07T10:58:41;18.90;69.30
7708;DHT22;3896;48.758;8.888;2023-08-07T11:01:20;19.00;69.20
7708;DHT22;3896;48.758;8.888;2023-08-07T11:03:59;19.00;69.60
7708;DHT22;3896;48.758;8.888;2023-08-07T11:06:30;19.00;69.10
7708;DHT22;3896;48.758;8.888;2023-08-07T11:08:57;19.10;68.40
7708;DHT22;3896;48.758;8.888;2023-08-07T11:11:23;19.20;68.00
7708;DHT22;3896;48.758;8.888;2023-08-07T11:13:49;19.20;67.60
7708;DHT22;3896;48.758;8.888;2023-08-07T11:16:16;19.30;67.50
7708;DHT22;3896;48.758;8.888;2023-08-07T11:18:42;19.30;67.50
7708;DHT22;3896;48.758;8.888;2023-08-07T11:21:09;19.40;67.30
7708;DHT22;3896;48.758;8.888;2023-08-07T11:23:39;19.40;67.50
7708;DHT22;3896;48.758;8.888;2023-08-07T11:26:05;19.40;66.90
7708;DHT22;3896;48.758;8.888;2023-08-07T11:28:33;19.40;66.60
7708;DHT22;3896;48.758;8.888;2023-08-07T11:30:59;19.40;66.50
7708;DHT22;3896;48.758;8.888;2023-08-07T11:33:25;19.30;66.70
7708;DHT22;3896;48.758;8.888;2023-08-07T11:35:51;19.30;66.50
7708;DHT22;3896;48.758;8.888;2023-08-07T11:38:34;19.30;66.40
7708;DHT22;3896;48.758;8.888;2023-08-07T11:41:01;19.20;66.20
7708;DHT22;3896;48.758;8.888;2023-08-07T11:43:29;19.20;66.40
7708;DHT22;3896;48.758;8.888;2023-08-07T11:45:56;19.20;66.10
7708;DHT22;3896;48.758;8.888;2023-08-07T11:48:24;19.10;65.90
7708;DHT22;3896;48.758;8.888;2023-08-07T11:50:51;19.00;65.60
7708;DHT22;3896;48.758;8.888;2023-08-07T11:53:16;19.00;65.60
7708;DHT22;3896;48.758;8.888;2023-08-07T11:55:59;18.90;65.50
7708;DHT22;3896;48.758;8.888;2023-08-07T11:58:26;18.90;65.60
7708;DHT22;3896;48.758;8.888;2023-08-07T12:00:52;18.80;66.10
7708;DHT22;3896;48.758;8.888;2023-08-07T12:03:28;18.70;66.80
7708;DHT22;3896;48.758;8.888;2023-08-07T12:05:58;18.60;68.70
7708;DHT22;3896;48.758;8.888;2023-08-07T12:08:35;18.50;69.50
7708;DHT22;3896;48.758;8.888;2023-08-07T12:11:03;18.50;69.90
7708;DHT22;3896;48.758;8.888;2023-08-07T12:13:29;18.40;70.60
7708;DHT22;3896;48.758;8.888;2023-08-07T12:15:57;18.40;71.10
7708;DHT22;3896;48.758;8.888;2023-08-07T12:18:24;18.40;71.10
7708;DHT22;3896;48.758;8.888;2023-08-07T12:20:52;18.40;71.60
7708;DHT22;3896;48.758;8.888;2023-08-07T12:23:20;18.40;71.60
7708;DHT22;3896;48.758;8.888;2023-08-07T12:25:46;18.40;71.20
7708;DHT22;3896;48.758;8.888;2023-08-07T12:28:12;18.50;71.00
7708;DHT22;3896;48.758;8.888;2023-08-07T12:30:38;18.50;70.70
7708;DHT22;3896;48.758;8.888;2023-08-07T12:33:04;18.50;71.20
7708;DHT22;3896;48.758;8.888;2023-08-07T12:35:34;18.50;70.50
7708;DHT22;3896;48.758;8.888;2023-08-07T12:38:00;18.50;70.10
7708;DHT22;3896;48.758;8.888;2023-08-07T12:40:27;18.50;69.50
7708;DHT22;3896;48.758;8.888;2023-08-07T12:42:52;18.50;69.20
7708;DHT22;3896;48.758;8.888;2023-08-07T12:45:18;18.50;69.60
7708;DHT22;3896;48.758;8.888;2023-08-07T12:47:47;18.60;69.80
7708;DHT22;3896;48.758;8.888;2023-08-07T12:50:13;18.60;70.20
7708;DHT22;3896;48.758;8.888;2023-08-07T12:52:38;18.70;70.10
7708;DHT22;3896;48.758;8.888;2023-08-07T12:55:04;18.70;70.20
7708;DHT22;3896;48.758;8.888;2023-08-07T12:57:31;18.80;70.20
7708;DHT22;3896;48.758;8.888;2023-08-07T12:59:57;18.80;70.30
7708;DHT22;3896;48.758;8.888;2023-08-07T13:02:22;18.90;69.60
7708;DHT22;3896;48.758;8.888;2023-08-07T13:04:48;18.90;69.90
7708;DHT22;3896;48.758;8.888;2023-08-07T13:07:13;19.00;70.70
7708;DHT22;3896;48.758;8.888;2023-08-07T13:09:39;19.00;69.70
7708;DHT22;3896;48.758;8.888;2023-08-07T13:12:05;19.10;69.00
7708;DHT22;3896;48.758;8.888;2023-08-07T13:14:30;19.10;68.80
7708;DHT22;3896;48.758;8.888;2023-08-07T13:16:56;19.10;68.80
7708;DHT22;3896;48.758;8.888;2023-08-07T13:19:21;19.10;68.30
7708;DHT22;3896;48.758;8.888;2023-08-07T13:21:47;19.10;68.00
7708;DHT22;3896;48.758;8.888;2023-08-07T13:24:13;19.20;68.20
7708;DHT22;3896;48.758;8.888;2023-08-07T13:26:38;19.30;68.10
7708;DHT22;3896;48.758;8.888;2023-08-07T13:29:10;19.40;67.50
7708;DHT22;3896;48.758;8.888;2023-08-07T13:31:36;19.70;67.00
7708;DHT22;3896;48.758;8.888;2023-08-07T13:34:01;19.90;66.50
7708;DHT22;3896;48.758;8.888;2023-08-07T13:36:36;20.20;65.50
7708;DHT22;3896;48.758;8.888;2023-08-07T13:39:02;20.40;65.10
7708;DHT22;3896;48.758;8.888;2023-08-07T13:41:28;20.50;64.10
7708;DHT22;3896;48.758;8.888;2023-08-07T13:43:53;20.70;63.60
7708;DHT22;3896;48.758;8.888;2023-08-07T13:46:19;20.80;63.40
7708;DHT22;3896;48.758;8.888;2023-08-07T13:48:45;20.90;62.80
7708;DHT22;3896;48.758;8.888;2023-08-07T13:51:11;21.00;63.20
7708;DHT22;3896;48.758;8.888;2023-08-07T13:53:37;21.20;62.90
7708;DHT22;3896;48.758;8.888;2023-08-07T13:56:02;21.40;62.40
7708;DHT22;3896;48.758;8.888;2023-08-07T13:58:28;21.50;61.40
7708;DHT22;3896;48.758;8.888;2023-08-07T14:00:55;21.70;61.20
7708;DHT22;3896;48.758;8.888;2023-08-07T14:03:21;21.90;61.00
7708;DHT22;3896;48.758;8.888;2023-08-07T14:05:46;22.10;61.00
7708;DHT22;3896;48.758;8.888;2023-08-07T14:08:12;22.30;60.70
7708;DHT22;3896;48.758;8.888;2023-08-07T14:10:37;22.50;59.90
7708;DHT22;3896;48.758;8.888;2023-08-07T14:13:06;22.70;59.80
7708;DHT22;3896;48.758;8.888;2023-08-07T14:15:31;22.80;59.20
7708;DHT22;3896;48.758;8.888;2023-08-07T14:17:57;22.90;58.90
7708;DHT22;3896;48.758;8.888;2023-08-07T14:20:22;23.00;58.70
7708;DHT22;3896;48.758;8.888;2023-08-07T14:22:50;23.00;58.60
7708;DHT22;3896;48.758;8.888;2023-08-07T14:25:16;23.10;58.60
7708;DHT22;3896;48.758;8.888;2023-08-07T14:27:41;23.10;58.20
7708;DHT22;3896;48.758;8.888;2023-08-07T14:30:07;23.10;57.70
7708;DHT22;3896;48.758;8.888;2023-08-07T14:32:33;23.10;57.60
7708;DHT22;3896;48.758;8.888;2023-08-07T14:34:58;23.10;57.60
7708;DHT22;3896;48.758;8.888;2023-08-07T14:37:24;23.00;57.20
7708;DHT22;3896;48.758;8.888;2023-08-07T14:39:49;23.00;57.10
7708;DHT22;3896;48.758;8.888;2023-08-07T14:42:15;22.90;57.00
7708;DHT22;3896;48.758;8.888;2023-08-07T14:44:41;22.80;56.50
7708;DHT22;3896;48.758;8.888;2023-08-07T14:47:06;22.80;56.30
7708;DHT22;3896;48.758;8.888;2023-08-07T14:49:32;22.70;56.20
7708;DHT22;3896;48.758;8.888;2023-08-07T14:51:58;22.70;56.40
7708;DHT22;3896;48.758;8.888;2023-08-07T14:54:23;22.70;56.80
7708;DHT22;3896;48.758;8.888;2023-08-07T14:56:49;22.70;56.80
7708;DHT22;3896;48.758;8.888;2023-08-07T14:59:15;22.80;56.80
7708;DHT22;3896;48.758;8.888;2023-08-07T15:01:40;22.90;56.90
7708;DHT22;3896;48.758;8.888;2023-08-07T15:04:06;23.10;56.50
7708;DHT22;3896;48.758;8.888;2023-08-07T15:06:32;23.20;56.80
7708;DHT22;3896;48.758;8.888;2023-08-07T15:08:58;23.40;56.20
7708;DHT22;3896;48.758;8.888;2023-08-07T15:11:24;23.50;55.90
7708;DHT22;3896;48.758;8.888;2023-08-07T15:13:49;23.50;56.00
7708;DHT22;3896;48.758;8.888;2023-08-07T15:16:15;23.60;56.30
7708;DHT22;3896;48.758;8.888;2023-08-07T15:18:41;23.70;56.10
7708;DHT22;3896;48.758;8.888;2023-08-07T15:21:06;23.80;55.60
7708;DHT22;3896;48.758;8.888;2023-08-07T15:23:32;23.90;55.20
7708;DHT22;3896;48.758;8.888;2023-08-07T15:25:58;23.90;54.90
7708;DHT22;3896;48.758;8.888;2023-08-07T15:28:24;23.80;54.70
7708;DHT22;3896;48.758;8.888;2023-08-07T15:30:50;23.80;54.90
7708;DHT22;3896;48.758;8.888;2023-08-07T15:33:16;23.80;54.50
7708;DHT22;3896;48.758;8.888;2023-08-07T15:35:42;23.70;54.50
7708;DHT22;3896;48.758;8.888;2023-08-07T15:38:08;23.60;54.60
7708;DHT22;3896;48.758;8.888;2023-08-07T15:40:38;23.60;54.60
7708;DHT22;3896;48.758;8.888;2023-08-07T15:43:03;23.50;54.80
7708;DHT22;3896;48.758;8.888;2023-08-07T15:45:29;23.50;55.20
7708;DHT22;3896;48.758;8.888;2023-08-07T15:47:55;23.40;55.30
7708;DHT22;3896;48.758;8.888;2023-08-07T15:50:21;23.40;55.30
7708;DHT22;3896;48.758;8.888;2023-08-07T15:52:46;23.30;55.40
7708;DHT22;3896;48.758;8.888;2023-08-07T15:55:12;23.30;55.80
7708;DHT22;3896;48.758;8.888;2023-08-07T15:57:38;23.30;56.00
7708;DHT22;3896;48.758;8.888;2023-08-07T16:00:05;23.30;56.20